Time;durP1;ratioP1;P1;durP2;ratioP2;P2;SDS_P1;SDS_P2;PMS_P1;PMS_P2;Temp;Humidity;BMP_temperature;BMP_pressure;BME280_temperature;BME280_humidity;BME280_pressure;Samples;Min_cycle;Max_cycle;Signal;HPM_P1;HPM_P2
2023/11/05 00:00:17;;;;;;;1.30;0.80;;;;;;;12.45;60.52;94128.34;5070622;28;20197;-70
2023/11/05 00:02:42;;;;;;;1.30;0.73;;;;;;;12.51;60.58;94121.34;5079856;28;20582;-69
2023/11/05 00:05:08;;;;;;;0.90;0.67;;;;;;;12.55;60.10;94114.59;5058886;28;20713;-69
2023/11/05 00:07:34;;;;;;;0.97;0.70;;;;;;;12.47;59.72;94125.50;5068888;28;20185;-69
2023/11/05 00:09:59;;;;;;;1.33;0.70;;;;;;;12.54;59.75;94115.63;5051669;28;20500;-70
2023/11/05 00:12:25;;;;;;;2.07;0.70;;;;;;;12.46;59.69;94095.81;5069709;28;20261;-71
2023/11/05 00:14:50;;;;;;;1.10;0.70;;;;;;;12.56;59.40;94101.22;5073706;28;20210;-71
2023/11/05 00:17:16;;;;;;;2.07;0.70;;;;;;;12.62;59.36;94107.34;5050672;28;20308;-70
2023/11/05 00:19:41;;;;;;;2.13;0.60;;;;;;;12.65;58.97;94093.72;5068594;28;20190;-71
2023/11/05 00:22:07;;;;;;;2.27;0.70;;;;;;;12.67;58.64;94101.34;5057488;28;20264;-71
2023/11/05 00:24:32;;;;;;;1.43;0.70;;;;;;;12.55;58.83;94096.22;5063672;28;20209;-70
2023/11/05 00:26:58;;;;;;;1.27;0.57;;;;;;;12.59;58.66;94079.72;5051598;28;20269;-69
2023/11/05 00:29:23;;;;;;;1.00;0.60;;;;;;;12.69;58.67;94070.38;5068011;28;20214;-71
2023/11/05 00:31:48;;;;;;;1.07;0.80;;;;;;;12.56;58.58;94067.06;5071934;28;20259;-71
2023/11/05 00:34:14;;;;;;;1.23;0.60;;;;;;;12.64;58.44;94076.38;5069770;28;20202;-70
2023/11/05 00:36:39;;;;;;;0.93;0.63;;;;;;;12.66;58.48;94063.00;5068764;28;20209;-71
2023/11/05 00:39:05;;;;;;;0.90;0.50;;;;;;;12.68;58.33;94072.22;5069071;28;20289;-68
2023/11/05 00:41:32;;;;;;;0.80;0.60;;;;;;;12.60;58.14;94080.53;5057541;28;20220;-70
2023/11/05 00:43:57;;;;;;;1.50;0.57;;;;;;;12.54;58.25;94068.34;5070454;28;20813;-68
2023/11/05 00:46:22;;;;;;;0.80;0.60;;;;;;;12.60;58.07;94059.53;5053407;28;20428;-70
2023/11/05 00:48:48;;;;;;;0.90;0.60;;;;;;;12.62;58.00;94057.44;5071538;28;20261;-70
2023/11/05 00:51:14;;;;;;;4.73;0.70;;;;;;;12.64;57.99;94044.84;5069169;28;20178;-70
2023/11/05 00:53:39;;;;;;;1.67;0.80;;;;;;;12.69;57.61;94036.22;5068232;28;20217;-70
2023/11/05 00:56:05;;;;;;;1.00;0.60;;;;;;;12.64;57.58;94031.72;5067708;28;20187;-69
2023/11/05 00:58:30;;;;;;;1.37;0.60;;;;;;;12.65;57.66;94025.44;5059821;28;20642;-68
2023/11/05 01:00:56;;;;;;;0.80;0.50;;;;;;;12.65;57.68;94041.19;5075563;28;20182;-71
2023/11/05 01:03:21;;;;;;;1.50;0.73;;;;;;;12.58;57.60;94035.31;5052410;28;20740;-70
2023/11/05 01:05:46;;;;;;;1.00;0.60;;;;;;;12.59;57.66;94029.03;5072936;28;20181;-70
2023/11/05 01:08:12;;;;;;;0.90;0.60;;;;;;;12.64;57.58;94023.06;5071010;28;20209;-70
2023/11/05 01:10:37;;;;;;;2.17;0.50;;;;;;;12.58;57.48;94032.69;5070157;28;20646;-70
2023/11/05 01:13:03;;;;;;;0.80;0.60;;;;;;;12.60;57.76;94022.75;5076336;28;20178;-70
2023/11/05 01:15:29;;;;;;;1.17;0.67;;;;;;;12.64;57.57;94020.44;5063307;28;20181;-70
2023/11/05 01:17:55;;;;;;;1.27;0.60;;;;;;;12.64;57.52;94007.28;5068793;28;20202;-71
2023/11/05 01:20:20;;;;;;;1.43;0.63;;;;;;;12.63;57.04;94001.22;5070271;28;20450;-70
2023/11/05 01:22:46;;;;;;;1.83;0.60;;;;;;;12.64;57.64;94010.69;5057871;28;20216;-71
2023/11/05 01:25:11;;;;;;;1.50;0.77;;;;;;;12.65;57.22;94008.88;5069324;28;20263;-71
2023/11/05 01:27:37;;;;;;;3.17;0.80;;;;;;;12.65;57.39;93998.38;5063867;28;20208;-71
2023/11/05 01:30:03;;;;;;;1.53;0.60;;;;;;;12.65;56.91;93995.75;5055515;28;20287;-71
2023/11/05 01:32:28;;;;;;;1.10;0.70;;;;;;;12.68;56.96;93995.25;5067452;28;20667;-71
2023/11/05 01:34:53;;;;;;;1.30;0.70;;;;;;;12.64;56.51;93996.78;5048686;28;20292;-70
2023/11/05 01:37:19;;;;;;;2.30;0.73;;;;;;;12.67;56.55;94006.78;5065991;28;20289;-70
2023/11/05 01:39:44;;;;;;;0.83;0.60;;;;;;;12.70;56.37;93998.41;5066284;28;20297;-69
2023/11/05 01:42:10;;;;;;;3.97;0.70;;;;;;;12.67;56.49;93993.66;5052033;28;20213;-70
2023/11/05 01:44:35;;;;;;;1.10;0.50;;;;;;;12.68;56.02;93992.63;5033545;28;20903;-71
2023/11/05 01:47:01;;;;;;;1.30;0.80;;;;;;;12.62;56.33;93983.09;5010001;28;20377;-70
2023/11/05 01:49:27;;;;;;;0.90;0.60;;;;;;;12.72;56.17;93980.59;5038328;28;20231;-69
2023/11/05 01:51:53;;;;;;;1.07;0.67;;;;;;;12.81;55.82;93970.44;5014703;28;20248;-69
2023/11/05 01:54:18;;;;;;;1.97;0.60;;;;;;;12.66;56.13;93961.34;5033317;28;20436;-70
2023/11/05 01:56:44;;;;;;;0.90;0.50;;;;;;;12.64;55.81;93955.53;5075904;28;20836;-70
2023/11/05 01:59:10;;;;;;;4.83;0.60;;;;;;;12.79;55.57;93951.50;5050197;28;20774;-70
2023/11/05 02:01:35;;;;;;;1.37;0.50;;;;;;;12.72;55.19;93956.94;5051799;28;20223;-69
2023/11/05 02:04:01;;;;;;;1.10;0.50;;;;;;;12.74;55.53;93941.75;5057580;28;20190;-69
2023/11/05 02:06:39;;;;;;;1.77;0.63;;;;;;;12.66;55.28;93940.34;5069322;28;20209;-69
2023/11/05 02:09:10;;;;;;;0.90;0.60;;;;;;;12.81;54.88;93933.66;5044704;28;20179;-74
2023/11/05 02:11:35;;;;;;;3.07;0.67;;;;;;;12.89;54.66;93935.84;5044048;28;20463;-71
2023/11/05 02:14:00;;;;;;;1.97;0.77;;;;;;;12.84;54.93;93923.44;5069080;28;20234;-70
2023/11/05 02:16:31;;;;;;;2.07;1.00;;;;;;;12.75;54.78;93911.81;5068035;28;20701;-72
2023/11/05 02:18:57;;;;;;;1.17;0.60;;;;;;;12.84;54.40;93914.78;5067387;28;20648;-70
2023/11/05 02:21:26;;;;;;;1.93;0.90;;;;;;;12.86;54.33;93907.44;5051624;28;20433;-71
2023/11/05 02:23:51;;;;;;;1.67;0.77;;;;;;;12.91;54.25;93896.97;5067150;28;20436;-70
2023/11/05 02:26:17;;;;;;;1.33;0.80;;;;;;;12.91;53.89;93891.72;5051370;28;20419;-72
2023/11/05 02:28:43;;;;;;;1.37;0.70;;;;;;;12.99;53.68;93891.28;5059752;28;20268;-74
2023/11/05 02:31:08;;;;;;;2.90;0.80;;;;;;;12.89;53.54;93878.03;5063419;28;20185;-72
2023/11/05 02:33:40;;;;;;;6.17;0.70;;;;;;;12.95;53.43;93871.81;5076093;28;20818;-72
2023/11/05 02:36:06;;;;;;;1.67;0.80;;;;;;;13.02;53.02;93861.88;5065664;28;20177;-72
2023/11/05 02:38:31;;;;;;;3.20;0.70;;;;;;;13.09;52.93;93866.16;5049502;28;20814;-72
2023/11/05 02:40:57;;;;;;;3.60;0.70;;;;;;;13.09;52.51;93861.66;5066172;28;20186;-72
2023/11/05 02:43:22;;;;;;;4.00;0.70;;;;;;;13.15;52.50;93854.63;5076397;28;20194;-72
2023/11/05 02:45:48;;;;;;;1.30;0.70;;;;;;;13.13;52.51;93854.06;5076090;28;20182;-72
2023/11/05 02:48:13;;;;;;;1.97;0.73;;;;;;;13.18;51.89;93860.16;5080303;28;20326;-72
2023/11/05 02:50:39;;;;;;;1.67;0.70;;;;;;;13.13;51.77;93851.44;5066201;28;20432;-73
2023/11/05 02:53:04;;;;;;;4.30;0.83;;;;;;;13.12;52.08;93848.03;5078476;28;20181;-70
2023/11/05 02:55:30;;;;;;;3.40;0.90;;;;;;;13.14;51.64;93826.75;5071159;28;20655;-71
2023/11/05 02:57:55;;;;;;;3.23;0.80;;;;;;;13.26;51.40;93834.47;5069441;28;20734;-69
2023/11/05 03:00:25;;;;;;;1.37;0.60;;;;;;;13.26;51.37;93834.47;5067786;28;20232;-70
2023/11/05 03:02:50;;;;;;;2.43;0.67;;;;;;;13.31;51.36;93827.41;5072817;28;20190;-71
2023/11/05 03:05:15;;;;;;;1.63;0.73;;;;;;;13.36;50.83;93826.66;5067980;28;20940;-70
2023/11/05 03:07:41;;;;;;;4.00;1.17;;;;;;;13.18;50.94;93823.34;5051795;28;20213;-70
2023/11/05 03:10:07;;;;;;;2.60;0.70;;;;;;;13.28;50.63;93809.50;5080560;28;20182;-72
2023/11/05 03:12:32;;;;;;;2.33;0.70;;;;;;;13.35;50.58;93811.91;5082289;28;20189;-72
2023/11/05 03:14:57;;;;;;;2.60;0.90;;;;;;;13.38;50.48;93811.44;5074193;28;20298;-70
2023/11/05 03:17:23;;;;;;;1.87;0.70;;;;;;;13.38;50.15;93803.53;5083161;28;20736;-71
2023/11/05 03:19:48;;;;;;;2.13;0.70;;;;;;;13.39;50.35;93817.47;5073330;28;20206;-71
2023/11/05 03:22:14;;;;;;;3.60;1.00;;;;;;;13.28;50.35;93811.34;5071424;28;20197;-71
2023/11/05 03:24:40;;;;;;;2.20;0.90;;;;;;;13.41;50.27;93805.69;5079360;28;20267;-73
2023/11/05 03:27:07;;;;;;;2.23;0.83;;;;;;;13.32;50.47;93802.72;5079876;28;20201;-73
2023/11/05 03:29:32;;;;;;;1.10;0.70;;;;;;;13.40;50.22;93792.78;5071419;28;20440;-72
2023/11/05 03:31:58;;;;;;;2.93;0.90;;;;;;;13.50;50.19;93795.47;5070884;28;20424;-72
2023/11/05 03:34:23;;;;;;;2.23;0.70;;;;;;;13.48;49.96;93797.59;5079352;28;20205;-72
2023/11/05 03:36:49;;;;;;;1.50;0.90;;;;;;;13.55;49.87;93797.34;5080580;28;20269;-72
2023/11/05 03:39:14;;;;;;;4.87;0.80;;;;;;;13.56;49.67;93794.47;5080267;28;20289;-73
2023/11/05 03:41:40;;;;;;;5.53;0.83;;;;;;;13.52;49.69;93790.75;5067826;28;20247;-74
2023/11/05 03:44:06;;;;;;;1.80;0.70;;;;;;;13.62;49.76;93790.03;5070027;28;20695;-74
2023/11/05 03:46:31;;;;;;;3.13;0.90;;;;;;;13.49;49.88;93786.00;5071140;28;20186;-72
2023/11/05 03:48:56;;;;;;;3.63;1.00;;;;;;;13.42;49.72;93791.47;5052884;28;20182;-73
2023/11/05 03:51:22;;;;;;;1.93;0.80;;;;;;;13.56;49.90;93794.47;5078791;28;20265;-73
2023/11/05 03:53:47;;;;;;;1.57;0.67;;;;;;;13.51;49.47;93797.06;5070923;28;20297;-74
2023/11/05 03:56:16;;;;;;;3.80;0.80;;;;;;;13.55;49.39;93789.44;5071232;28;20189;-72
2023/11/05 03:58:42;;;;;;;3.10;0.80;;;;;;;13.58;49.68;93794.22;5067429;28;20206;-71
2023/11/05 04:01:14;;;;;;;2.93;0.80;;;;;;;13.52;49.58;93793.38;5078636;28;20477;-73
2023/11/05 04:03:40;;;;;;;5.13;0.80;;;;;;;13.55;49.49;93792.88;5070056;28;20259;-70
2023/11/05 04:06:06;;;;;;;1.90;0.80;;;;;;;13.59;49.43;93780.81;5069750;28;20425;-74
2023/11/05 04:08:32;;;;;;;5.17;0.80;;;;;;;13.57;49.19;93782.91;5070691;28;20266;-72
2023/11/05 04:10:57;;;;;;;3.93;0.83;;;;;;;13.69;49.26;93781.91;5071736;28;20504;-73
2023/11/05 04:13:23;;;;;;;2.63;0.90;;;;;;;13.56;49.47;93781.31;5078723;28;20569;-72
2023/11/05 04:15:49;;;;;;;3.80;0.80;;;;;;;13.62;49.29;93790.81;5078513;28;20430;-71
2023/11/05 04:18:14;;;;;;;2.60;0.80;;;;;;;13.53;49.45;93789.72;5069343;28;20233;-71
2023/11/05 04:20:40;;;;;;;1.73;0.90;;;;;;;13.61;49.42;93794.47;5069273;28;20551;-71
2023/11/05 04:23:05;;;;;;;3.03;0.97;;;;;;;13.56;49.47;93785.78;5069752;28;20273;-70
2023/11/05 04:25:30;;;;;;;1.73;0.60;;;;;;;13.60;49.62;93784.22;5074293;28;20214;-70
2023/11/05 04:27:56;;;;;;;2.60;0.90;;;;;;;13.55;49.49;93782.34;5069362;28;20185;-73
2023/11/05 04:30:21;;;;;;;4.67;0.87;;;;;;;13.57;49.80;93785.53;5070372;28;20751;-71
2023/11/05 04:32:47;;;;;;;4.90;0.70;;;;;;;13.61;49.77;93773.44;5070076;28;20210;-72
2023/11/05 04:35:13;;;;;;;3.27;0.90;;;;;;;13.59;49.84;93780.00;5067096;28;20205;-72
2023/11/05 04:37:38;;;;;;;4.27;1.00;;;;;;;13.59;49.71;93786.06;5070199;28;20203;-73
2023/11/05 04:40:06;;;;;;;3.00;0.70;;;;;;;13.62;49.48;93779.50;5035417;28;20675;-71
2023/11/05 04:42:31;;;;;;;3.83;1.00;;;;;;;13.51;49.99;93783.91;5070663;28;20183;-71
2023/11/05 04:45:00;;;;;;;3.50;1.10;;;;;;;13.57;49.67;93777.66;5078979;28;20448;-71
2023/11/05 04:47:25;;;;;;;4.80;1.00;;;;;;;13.56;49.92;93773.44;5056359;28;20190;-72
2023/11/05 04:49:51;;;;;;;4.20;1.00;;;;;;;13.60;49.81;93777.16;5072347;28;20552;-70
2023/11/05 04:52:16;;;;;;;6.60;0.80;;;;;;;13.60;49.92;93781.59;5069305;28;20240;-70
2023/11/05 04:54:42;;;;;;;2.17;0.80;;;;;;;13.72;49.76;93784.03;5068379;28;20198;-71
2023/11/05 04:57:07;;;;;;;3.50;1.17;;;;;;;13.67;50.21;93785.59;5068459;28;20182;-74
2023/11/05 04:59:34;;;;;;;2.43;0.83;;;;;;;13.69;49.92;93781.91;5069259;28;20212;-71
2023/11/05 05:02:00;;;;;;;1.57;0.87;;;;;;;13.65;49.82;93779.00;5072771;28;20269;-72
2023/11/05 05:04:26;;;;;;;2.17;1.20;;;;;;;13.65;50.22;93785.03;5062266;28;20519;-73
2023/11/05 05:06:51;;;;;;;3.10;0.80;;;;;;;13.62;50.16;93780.28;5072436;28;20603;-71
2023/11/05 05:09:17;;;;;;;1.63;0.67;;;;;;;13.69;50.07;93784.53;5053100;28;20183;-71
2023/11/05 05:11:44;;;;;;;2.93;0.90;;;;;;;13.56;50.50;93786.56;5070986;28;20246;-72
2023/11/05 05:14:09;;;;;;;2.40;0.90;;;;;;;13.51;50.60;93799.69;5033835;28;20544;-72
2023/11/05 05:16:35;;;;;;;2.50;0.77;;;;;;;13.54;50.29;93799.19;5057045;28;21055;-71
2023/11/05 05:19:00;;;;;;;3.00;0.80;;;;;;;13.56;50.58;93786.56;5069828;28;20297;-73
2023/11/05 05:21:26;;;;;;;1.70;0.80;;;;;;;13.64;50.67;93796.63;5063755;28;20198;-70
2023/11/05 05:23:51;;;;;;;3.33;0.80;;;;;;;13.66;50.65;93793.75;5065432;28;20301;-72
2023/11/05 05:26:17;;;;;;;6.33;1.10;;;;;;;13.62;50.51;93811.84;5068802;28;20175;-73
2023/11/05 05:28:43;;;;;;;7.80;0.60;;;;;;;13.67;50.44;93821.63;5071613;28;20662;-73
2023/11/05 05:31:08;;;;;;;3.37;0.70;;;;;;;13.72;50.64;93812.97;5064831;28;20582;-71
2023/11/05 05:33:34;;;;;;;4.57;0.80;;;;;;;13.71;50.60;93824.53;5061913;28;20281;-72
2023/11/05 05:35:59;;;;;;;2.10;0.83;;;;;;;13.70;50.57;93818.47;5068275;28;20194;-72
2023/11/05 05:38:25;;;;;;;4.83;0.80;;;;;;;13.70;50.83;93815.06;5062693;28;20281;-71
2023/11/05 05:40:50;;;;;;;2.40;0.80;;;;;;;13.65;50.68;93818.47;5059497;28;20264;-72
2023/11/05 05:43:16;;;;;;;1.93;0.83;;;;;;;13.68;50.92;93810.03;5072288;28;20259;-74
2023/11/05 05:45:41;;;;;;;2.60;0.70;;;;;;;13.58;51.15;93815.25;5068591;28;20190;-72
2023/11/05 05:48:06;;;;;;;1.73;0.70;;;;;;;13.61;51.39;93820.00;5069448;28;20528;-72
2023/11/05 05:50:32;;;;;;;3.50;0.70;;;;;;;13.62;51.12;93827.63;5066724;28;20188;-71
2023/11/05 05:52:58;;;;;;;1.73;0.80;;;;;;;13.57;51.48;93822.38;5067299;28;20213;-72
2023/11/05 05:55:24;;;;;;;6.20;1.17;;;;;;;13.60;51.50;93827.13;5052811;28;20558;-71
2023/11/05 05:57:50;;;;;;;4.00;0.80;;;;;;;13.50;51.66;93829.66;5019785;28;20210;-72
2023/11/05 06:00:16;;;;;;;1.30;0.70;;;;;;;13.55;51.54;93834.16;5037307;28;20425;-73
2023/11/05 06:02:41;;;;;;;1.70;0.80;;;;;;;13.52;51.92;93838.91;5050367;28;20535;-72
2023/11/05 06:05:08;;;;;;;2.30;0.70;;;;;;;13.51;51.92;93826.00;5048839;28;20203;-72
2023/11/05 06:07:36;;;;;;;2.60;0.87;;;;;;;13.55;51.92;93831.53;5067824;28;20178;-72
2023/11/05 06:10:02;;;;;;;1.77;0.80;;;;;;;13.50;52.01;93838.34;5060752;28;20486;-69
2023/11/05 06:12:28;;;;;;;1.40;0.70;;;;;;;13.40;52.21;93845.38;5067249;28;20429;-73
2023/11/05 06:14:53;;;;;;;2.10;0.80;;;;;;;13.48;52.07;93839.66;5067608;28;20445;-73
2023/11/05 06:17:19;;;;;;;2.20;0.83;;;;;;;13.52;52.20;93843.34;5053644;28;20186;-74
2023/11/05 06:19:44;;;;;;;5.83;1.07;;;;;;;13.47;52.38;93835.44;5066390;28;20216;-74
2023/11/05 06:22:10;;;;;;;3.70;0.83;;;;;;;13.47;52.32;93838.84;5066673;28;20190;-73
2023/11/05 06:24:38;;;;;;;1.27;0.60;;;;;;;13.44;52.56;93841.22;5069139;28;20288;-73
2023/11/05 06:27:04;;;;;;;1.70;0.93;;;;;;;13.47;52.24;93835.44;5083545;28;20734;-72
2023/11/05 06:29:29;;;;;;;3.27;1.10;;;;;;;13.45;52.63;93824.38;5070693;28;20428;-71
2023/11/05 06:31:54;;;;;;;1.60;0.80;;;;;;;13.49;52.41;93831.50;5067570;28;20197;-74
2023/11/05 06:34:20;;;;;;;3.67;0.80;;;;;;;13.48;52.71;93839.66;5066160;28;20292;-74
2023/11/05 06:36:56;;;;;;;3.53;0.90;;;;;;;13.55;52.46;93836.78;5044175;28;20209;-71
2023/11/05 06:39:21;;;;;;;1.87;0.90;;;;;;;13.49;52.84;93838.59;5062382;28;20725;-72
2023/11/05 06:41:47;;;;;;;1.83;0.70;;;;;;;13.41;53.36;93846.97;5066122;28;20460;-72
2023/11/05 06:44:12;;;;;;;2.60;0.93;;;;;;;13.48;53.28;93853.59;5064547;28;20256;-74
2023/11/05 06:46:38;;;;;;;2.40;0.67;;;;;;;13.54;53.23;93856.28;5060357;28;20191;-71
2023/11/05 06:49:03;;;;;;;1.10;0.63;;;;;;;13.58;53.40;93857.34;5064851;28;20812;-72
2023/11/05 06:51:29;;;;;;;1.67;0.83;;;;;;;13.56;53.54;93862.06;5068562;28;20784;-75
2023/11/05 06:53:54;;;;;;;2.03;0.80;;;;;;;13.56;53.65;93872.56;5064532;28;20213;-73
2023/11/05 06:56:20;;;;;;;1.40;0.60;;;;;;;13.42;54.11;93864.34;5068236;28;20706;-73
2023/11/05 06:58:47;;;;;;;1.00;0.60;;;;;;;13.43;54.07;93861.44;5073547;28;20279;-75
2023/11/05 07:01:13;;;;;;;1.90;0.83;;;;;;;13.57;53.59;93874.97;5067051;28;20193;-72
2023/11/05 07:03:38;;;;;;;1.77;0.70;;;;;;;13.43;54.24;93881.69;5067819;28;20456;-74
2023/11/05 07:06:04;;;;;;;1.63;1.00;;;;;;;13.49;54.15;93878.03;5080976;28;20702;-73
2023/11/05 07:08:29;;;;;;;1.20;0.97;;;;;;;13.50;53.94;93890.97;5070177;28;20655;-76
2023/11/05 07:10:55;;;;;;;2.40;0.73;;;;;;;13.54;53.72;93888.63;5067783;28;20182;-74
2023/11/05 07:13:20;;;;;;;0.90;0.50;;;;;;;13.57;53.79;93887.31;5066752;28;20182;-75
2023/11/05 07:15:46;;;;;;;1.53;0.70;;;;;;;13.57;54.34;93876.78;5055449;28;20679;-77
2023/11/05 07:18:11;;;;;;;2.20;0.60;;;;;;;13.54;54.36;93883.34;5078024;28;20597;-73
2023/11/05 07:20:37;;;;;;;1.57;0.60;;;;;;;13.45;54.76;93884.88;5071293;28;20225;-72
2023/11/05 07:23:03;;;;;;;4.33;1.47;;;;;;;13.62;55.73;93882.88;5069087;28;20186;-74
2023/11/05 07:25:29;;;;;;;1.80;1.07;;;;;;;13.87;55.00;93892.00;5073054;28;20185;-73
2023/11/05 07:27:55;;;;;;;0.93;0.60;;;;;;;13.92;54.77;93893.88;5068102;28;20902;-74
2023/11/05 07:30:20;;;;;;;1.17;0.83;;;;;;;13.98;54.28;93896.28;5065515;28;20236;-75
2023/11/05 07:32:49;;;;;;;1.03;0.60;;;;;;;14.07;53.98;93895.81;5067377;28;20190;-74
2023/11/05 07:35:14;;;;;;;2.20;0.70;;;;;;;14.08;53.73;93907.94;5067130;28;20289;-73
2023/11/05 07:37:40;;;;;;;1.50;0.77;;;;;;;14.12;53.57;93899.25;5067331;28;21016;-74
2023/11/05 07:40:06;;;;;;;1.30;0.57;;;;;;;14.07;53.73;93912.38;5076037;28;20762;-73
2023/11/05 07:42:32;;;;;;;1.20;0.67;;;;;;;14.19;53.55;93920.09;5052530;28;20186;-74
2023/11/05 07:44:57;;;;;;;1.43;0.60;;;;;;;14.47;52.83;93926.03;5066977;28;20474;-73
2023/11/05 07:47:23;;;;;;;0.90;0.60;;;;;;;14.82;52.49;93924.59;5066329;28;20270;-75
2023/11/05 07:49:48;;;;;;;3.77;0.60;;;;;;;15.07;50.96;93917.00;5049045;28;20186;-74
2023/11/05 07:52:14;;;;;;;1.13;0.70;;;;;;;15.23;50.22;93917.84;5066522;28;20229;-75
2023/11/05 07:54:40;;;;;;;1.90;0.70;;;;;;;15.73;49.41;93928.69;5071167;28;20260;-73
2023/11/05 07:57:05;;;;;;;1.30;0.70;;;;;;;16.01;48.51;93937.94;5070936;28;20717;-74
2023/11/05 07:59:31;;;;;;;0.90;0.70;;;;;;;16.18;47.78;93944.78;5065676;28;20203;-76
2023/11/05 08:01:58;;;;;;;1.00;0.60;;;;;;;16.51;46.71;93945.22;5069906;28;20612;-75
2023/11/05 08:04:25;;;;;;;0.87;0.57;;;;;;;16.47;45.98;93954.75;5068606;28;20764;-74
2023/11/05 08:06:50;;;;;;;0.90;0.60;;;;;;;16.82;45.69;93948.53;5061855;28;20471;-75
2023/11/05 08:09:16;;;;;;;0.90;0.57;;;;;;;16.97;45.96;93963.59;5066171;28;20501;-73
2023/11/05 08:11:43;;;;;;;0.90;0.60;;;;;;;17.02;46.28;93984.72;5066765;28;20306;-73
2023/11/05 08:14:09;;;;;;;1.03;0.60;;;;;;;16.99;46.27;93985.28;5058818;28;20207;-74
2023/11/05 08:16:34;;;;;;;0.80;0.50;;;;;;;17.15;46.60;93982.53;5051581;28;20467;-73
2023/11/05 08:19:00;;;;;;;2.40;0.50;;;;;;;17.19;46.67;93999.47;5075691;28;20710;-73
2023/11/05 08:21:25;;;;;;;1.47;0.50;;;;;;;16.89;46.84;94003.78;5068950;28;20261;-74
2023/11/05 08:23:51;;;;;;;0.90;0.60;;;;;;;16.85;46.77;94034.47;5071003;28;20234;-74
2023/11/05 08:26:17;;;;;;;1.80;0.60;;;;;;;16.92;47.17;94026.28;5076345;28;20257;-74
2023/11/05 08:28:43;;;;;;;1.80;0.50;;;;;;;17.10;48.13;94025.69;5067462;28;20650;-74
2023/11/05 08:31:10;;;;;;;0.80;0.40;;;;;;;16.78;47.61;94044.53;5061874;28;20424;-74
2023/11/05 08:33:36;;;;;;;0.90;0.50;;;;;;;17.37;47.04;94042.25;5072647;28;20220;-75
2023/11/05 08:36:02;;;;;;;1.43;0.60;;;;;;;17.73;46.17;94044.69;5065268;28;20808;-74
2023/11/05 08:38:27;;;;;;;2.17;0.50;;;;;;;17.85;45.30;94053.09;5065223;28;20206;-74
2023/11/05 08:40:52;;;;;;;0.90;0.50;;;;;;;18.04;44.48;94044.50;5070191;28;20268;-73
2023/11/05 08:43:18;;;;;;;0.70;0.40;;;;;;;18.29;43.83;94059.44;5060395;28;20210;-73
2023/11/05 08:45:43;;;;;;;0.90;0.50;;;;;;;18.43;43.02;94064.88;5051876;28;20189;-73
2023/11/05 08:48:09;;;;;;;1.00;0.47;;;;;;;18.61;43.06;94062.59;5074791;28;20596;-73
2023/11/05 08:50:34;;;;;;;1.63;0.70;;;;;;;18.64;42.25;94077.97;5069514;28;20190;-74
2023/11/05 08:53:00;;;;;;;1.60;0.50;;;;;;;18.03;43.66;94090.59;5056906;28;20224;-75
2023/11/05 08:55:28;;;;;;;1.47;0.50;;;;;;;17.52;44.23;94081.84;5071530;28;20208;-74
2023/11/05 08:57:57;;;;;;;1.97;0.60;;;;;;;17.60;44.50;94089.25;5069721;28;20733;-73
2023/11/05 09:00:25;;;;;;;4.50;0.50;;;;;;;17.56;44.31;94098.00;5058120;28;20428;-73
2023/11/05 09:02:51;;;;;;;1.10;0.53;;;;;;;17.94;44.03;94108.94;5051941;28;20455;-72
2023/11/05 09:05:17;;;;;;;1.13;0.50;;;;;;;18.01;43.96;94113.97;5068550;28;21305;-73
2023/11/05 09:07:43;;;;;;;1.30;0.50;;;;;;;18.52;43.40;94118.09;5070491;28;20413;-74
2023/11/05 09:10:09;;;;;;;1.03;0.60;;;;;;;18.96;42.42;94137.63;5069495;28;20185;-75
2023/11/05 09:12:35;;;;;;;0.80;0.40;;;;;;;19.09;41.78;94131.66;5075007;28;20277;-75
2023/11/05 09:15:02;;;;;;;1.93;0.70;;;;;;;18.93;41.95;94133.66;5074884;28;21005;-73
2023/11/05 09:17:28;;;;;;;1.50;0.43;;;;;;;18.87;42.24;94146.16;5072059;28;20712;-75
2023/11/05 09:19:53;;;;;;;4.87;0.50;;;;;;;19.48;41.16;94146.63;5074668;28;20435;-73
2023/11/05 09:22:20;;;;;;;1.33;0.50;;;;;;;19.96;40.31;94147.69;5074053;28;20189;-73
2023/11/05 09:24:45;;;;;;;1.00;0.60;;;;;;;19.64;40.18;94151.78;5073196;28;20201;-72
2023/11/05 09:27:11;;;;;;;1.33;0.50;;;;;;;19.61;40.60;94162.97;5055548;28;20450;-74
2023/11/05 09:29:36;;;;;;;2.50;0.50;;;;;;;19.15;40.90;94170.31;5048731;28;20201;-74
2023/11/05 09:32:02;;;;;;;0.87;0.57;;;;;;;18.66;41.40;94197.78;5077046;28;20178;-75
2023/11/05 09:34:27;;;;;;;1.43;0.60;;;;;;;18.65;41.84;94197.00;5069869;28;20621;-75
2023/11/05 09:36:53;;;;;;;2.47;0.60;;;;;;;18.22;42.71;94202.84;5059882;28;20274;-75
2023/11/05 09:39:18;;;;;;;1.47;0.60;;;;;;;18.05;42.99;94207.69;5080491;28;20210;-74
2023/11/05 09:41:44;;;;;;;0.90;0.60;;;;;;;17.33;44.30;94214.00;5056047;28;20666;-74
2023/11/05 09:44:09;;;;;;;1.90;0.67;;;;;;;17.07;45.45;94215.91;5064637;28;20206;-74
2023/11/05 09:46:35;;;;;;;1.30;0.60;;;;;;;17.03;46.46;94228.88;5051463;28;20193;-74
2023/11/05 09:49:00;;;;;;;1.37;0.60;;;;;;;16.76;47.20;94229.09;5051253;28;20265;-74
2023/11/05 09:51:26;;;;;;;2.30;0.73;;;;;;;17.13;47.05;94244.72;5049693;28;20261;-75
2023/11/05 09:53:51;;;;;;;1.87;0.60;;;;;;;17.32;46.35;94239.66;5051282;28;20198;-74
2023/11/05 09:56:17;;;;;;;0.97;0.50;;;;;;;17.57;45.20;94261.09;5052376;28;20312;-75
2023/11/05 09:58:42;;;;;;;1.40;0.50;;;;;;;17.48;45.65;94253.66;5053199;28;20258;-71
2023/11/05 10:01:08;;;;;;;0.90;0.50;;;;;;;17.46;45.80;94278.81;5077624;28;20190;-73
2023/11/05 10:03:34;;;;;;;1.53;0.60;;;;;;;17.34;45.59;94271.97;5068407;28;20209;-72
2023/11/05 10:05:59;;;;;;;1.90;0.73;;;;;;;17.38;46.14;94282.03;5066282;28;20218;-71
2023/11/05 10:08:27;;;;;;;1.30;1.10;;;;;;;17.14;47.14;94287.84;5068322;28;20604;-71
2023/11/05 10:10:57;;;;;;;1.27;0.60;;;;;;;17.01;48.33;94284.66;5069930;28;20652;-72
2023/11/05 10:13:26;;;;;;;1.33;0.60;;;;;;;16.78;48.87;94296.53;5071278;28;20425;-71
2023/11/05 10:15:52;;;;;;;2.50;0.70;;;;;;;16.67;49.25;94294.91;5054758;28;20753;-71
2023/11/05 10:18:18;;;;;;;1.23;0.60;;;;;;;16.54;49.57;94307.59;5069079;28;20463;-71
2023/11/05 10:20:52;;;;;;;3.50;0.73;;;;;;;16.75;49.30;94304.97;5036119;28;20192;-71
2023/11/05 10:23:18;;;;;;;1.40;0.60;;;;;;;16.91;49.14;94308.44;5075109;28;20177;-71
2023/11/05 10:25:47;;;;;;;1.10;0.60;;;;;;;16.70;49.50;94331.38;5069629;28;20929;-72
2023/11/05 10:28:13;;;;;;;6.87;0.70;;;;;;;16.46;50.33;94325.78;5069335;28;20174;-70
2023/11/05 10:30:41;;;;;;;1.50;0.80;;;;;;;16.29;51.05;94332.06;5068450;28;20454;-70
2023/11/05 10:33:08;;;;;;;1.20;0.57;;;;;;;16.44;51.23;94331.34;5052029;28;20425;-70
2023/11/05 10:35:35;;;;;;;1.30;0.60;;;;;;;16.24;51.79;94332.06;5051415;28;20445;-70
2023/11/05 10:38:02;;;;;;;1.57;0.60;;;;;;;16.30;51.92;94333.66;5051699;28;20457;-70
2023/11/05 10:40:28;;;;;;;1.60;0.70;;;;;;;16.14;52.13;94332.81;5069850;28;20897;-72
2023/11/05 10:42:54;;;;;;;0.90;0.50;;;;;;;16.25;52.22;94336.28;5079393;28;20417;-75
2023/11/05 10:45:25;;;;;;;0.87;0.50;;;;;;;16.12;52.58;94338.34;5059747;28;20444;-70
2023/11/05 10:47:50;;;;;;;1.37;0.50;;;;;;;15.93;52.78;94350.38;5051894;28;20209;-73
2023/11/05 10:50:20;;;;;;;1.00;0.53;;;;;;;16.06;52.67;94357.84;5063345;28;20513;-69
2023/11/05 10:52:49;;;;;;;0.90;0.50;;;;;;;16.07;53.17;94362.09;5045848;28;20223;-71
2023/11/05 10:55:15;;;;;;;1.10;0.70;;;;;;;16.00;53.15;94360.72;5053213;28;20882;-70
2023/11/05 10:57:48;;;;;;;1.57;0.50;;;;;;;15.96;53.11;94353.31;5069200;28;20461;-70
2023/11/05 11:00:14;;;;;;;1.63;0.60;;;;;;;16.02;53.44;94375.25;5056011;28;20421;-71
2023/11/05 11:02:40;;;;;;;1.00;0.50;;;;;;;15.73;53.77;94382.69;5084124;28;20430;-71
2023/11/05 11:05:09;;;;;;;0.83;0.50;;;;;;;15.82;53.85;94378.53;5077457;28;20448;-71
2023/11/05 11:07:38;;;;;;;1.20;0.50;;;;;;;15.78;53.71;94380.91;5069554;28;20683;-72
2023/11/05 11:10:06;;;;;;;1.37;0.60;;;;;;;15.57;54.22;94376.53;5053391;28;20436;-70
2023/11/05 11:12:33;;;;;;;0.80;0.50;;;;;;;15.52;54.12;94387.84;5067707;28;20435;-72
2023/11/05 11:14:59;;;;;;;1.43;0.60;;;;;;;15.51;53.88;94386.25;5069294;28;20523;-72
2023/11/05 11:17:34;;;;;;;0.80;0.50;;;;;;;15.44;53.76;94397.00;5069512;28;20431;-71
2023/11/05 11:20:09;;;;;;;0.90;0.53;;;;;;;15.63;53.97;94388.69;5065734;28;20833;-71
2023/11/05 11:22:42;;;;;;;1.30;0.60;;;;;;;15.52;54.36;94404.47;5069133;28;20485;-70
2023/11/05 11:25:09;;;;;;;3.33;0.70;;;;;;;15.56;54.46;94410.06;5070932;28;20509;-69
2023/11/05 11:27:40;;;;;;;0.80;0.40;;;;;;;15.46;54.58;94421.31;5062387;28;20425;-72